createdAt,value
2019-05-23T00:02:01.362Z,6.03
2019-05-23T00:05:01.584Z,5.40
2019-05-23T00:07:51.190Z,6.25
2019-05-23T00:10:42.595Z,6.03
2019-05-23T00:13:42.905Z,6.10
2019-05-23T00:16:18.238Z,5.40
2019-05-23T00:18:50.636Z,6.30
2019-05-23T00:21:22.105Z,6.07
2019-05-23T00:23:54.181Z,5.60
2019-05-23T00:26:26.944Z,6.20
2019-05-23T00:29:09.547Z,5.53
2019-05-23T00:31:48.842Z,5.83
2019-05-23T00:34:21.102Z,5.20
2019-05-23T00:36:53.746Z,5.37
2019-05-23T00:39:26.634Z,5.50
2019-05-23T00:41:57.927Z,5.10
2019-05-23T00:44:29.925Z,5.13
2019-05-23T00:47:01.852Z,4.90
2019-05-23T00:49:33.079Z,5.37
2019-05-23T00:52:05.461Z,5.20
2019-05-23T00:54:36.644Z,5.20
2019-05-23T00:57:08.958Z,4.73
2019-05-23T00:59:41.223Z,5.27
2019-05-23T01:02:12.908Z,5.27
2019-05-23T01:04:44.177Z,5.03
2019-05-23T01:07:15.381Z,5.53
2019-05-23T01:09:46.684Z,5.20
2019-05-23T01:12:18.940Z,5.60
2019-05-23T01:14:50.220Z,5.00
2019-05-23T01:17:23.219Z,4.90
2019-05-23T01:19:56.330Z,4.93
2019-05-23T01:22:27.881Z,5.30
2019-05-23T01:24:59.142Z,5.73
2019-05-23T01:27:30.489Z,5.10
2019-05-23T01:30:06.869Z,5.00
2019-05-23T01:32:48.689Z,5.00
2019-05-23T01:35:21.653Z,5.33
2019-05-23T01:37:52.849Z,5.43
2019-05-23T01:40:24.740Z,5.57
2019-05-23T01:42:56.412Z,5.17
2019-05-23T01:45:27.604Z,5.03
2019-05-23T01:47:59.043Z,5.10
2019-05-23T01:50:30.526Z,5.10
2019-05-23T01:53:02.102Z,5.43
2019-05-23T01:55:33.755Z,5.57
2019-05-23T01:58:06.013Z,5.43
2019-05-23T02:00:37.437Z,5.03
2019-05-23T02:03:08.681Z,5.27
2019-05-23T02:05:40.864Z,5.10
2019-05-23T02:08:14.049Z,5.00
2019-05-23T02:10:45.730Z,5.20
2019-05-23T02:13:17.996Z,5.30
2019-05-23T02:15:49.513Z,5.30
2019-05-23T02:18:22.433Z,5.30
2019-05-23T02:20:54.783Z,5.37
2019-05-23T02:23:26.743Z,5.00
2019-05-23T02:25:58.748Z,5.57
2019-05-23T02:28:30.827Z,5.30
2019-05-23T02:31:02.113Z,5.57
2019-05-23T02:33:33.386Z,5.30
2019-05-23T02:36:04.570Z,5.90
2019-05-23T02:38:40.542Z,5.43
2019-05-23T02:41:25.775Z,5.97
2019-05-23T02:44:01.483Z,6.03
2019-05-23T02:46:37.861Z,6.63
2019-05-23T02:49:10.866Z,7.10
2019-05-23T02:51:42.857Z,7.03
2019-05-23T02:54:15.462Z,7.13
2019-05-23T02:56:47.228Z,17.40
2019-05-23T02:59:34.865Z,13.33
2019-05-23T03:02:20.510Z,11.47
2019-05-23T03:04:51.998Z,8.57
2019-05-23T03:07:27.068Z,8.20
2019-05-23T03:09:59.052Z,7.00
2019-05-23T03:12:31.226Z,7.10
2019-05-23T03:15:03.339Z,7.30
2019-05-23T03:17:38.613Z,6.80
2019-05-23T03:20:10.630Z,6.63
2019-05-23T03:22:48.317Z,7.23
2019-05-23T03:25:39.048Z,7.13
2019-05-23T03:28:11.899Z,7.15
2019-05-23T03:31:25.133Z,6.80
2019-05-23T03:33:30.763Z,6.47
2019-05-23T03:36:04.054Z,7.20
2019-05-23T03:38:36.148Z,7.17
2019-05-23T03:41:07.842Z,6.57
2019-05-23T03:43:41.052Z,6.80
2019-05-23T03:46:16.760Z,6.50
2019-05-23T03:48:49.050Z,7.20
2019-05-23T03:51:21.072Z,7.07
2019-05-23T03:53:54.444Z,6.83
2019-05-23T03:56:29.295Z,6.53
2019-05-23T03:59:01.157Z,6.90
2019-05-23T04:01:46.695Z,7.17
2019-05-23T04:04:07.279Z,7.27
2019-05-23T04:06:38.951Z,6.57
2019-05-23T04:09:10.935Z,6.80
2019-05-23T04:11:42.399Z,7.17
2019-05-23T04:14:14.294Z,7.23
2019-05-23T04:16:46.967Z,7.43
2019-05-23T04:19:18.256Z,6.63
2019-05-23T04:21:49.450Z,7.40
2019-05-23T04:24:20.781Z,7.40
2019-05-23T04:26:52.024Z,7.40
2019-05-23T04:29:23.831Z,7.60
2019-05-23T04:32:07.388Z,7.13
2019-05-23T04:34:28.630Z,7.50
2019-05-23T04:37:00.167Z,7.43
2019-05-23T04:39:32.653Z,7.77
2019-05-23T04:42:05.005Z,7.63
2019-05-23T04:44:36.668Z,7.43
2019-05-23T04:47:10.074Z,7.27
2019-05-23T04:49:41.517Z,7.17
2019-05-23T04:52:13.704Z,6.83
2019-05-23T04:54:44.876Z,7.23
2019-05-23T04:57:17.542Z,7.07
2019-05-23T04:59:48.940Z,6.47
2019-05-23T05:02:26.172Z,6.73
2019-05-23T05:04:54.683Z,6.90
2019-05-23T05:07:26.237Z,6.90
2019-05-23T05:09:57.557Z,6.87
2019-05-23T05:12:30.223Z,6.73
2019-05-23T05:15:01.696Z,6.10
2019-05-23T05:17:33.486Z,6.40
2019-05-23T05:20:04.941Z,5.87
2019-05-23T05:22:36.505Z,6.37
2019-05-23T05:25:09.955Z,6.90
2019-05-23T05:27:41.383Z,6.67
2019-05-23T05:30:13.072Z,6.67
2019-05-23T05:32:45.883Z,6.37
2019-05-23T05:35:17.729Z,6.33
2019-05-23T05:37:48.953Z,6.03
2019-05-23T05:40:20.681Z,6.10
2019-05-23T05:42:52.156Z,5.80
2019-05-23T05:45:23.788Z,5.97
2019-05-23T05:47:55.463Z,5.90
2019-05-23T05:50:27.073Z,6.30
2019-05-23T05:52:59.008Z,5.90
2019-05-23T05:55:30.424Z,5.70
2019-05-23T05:58:02.285Z,4.97
2019-05-23T06:00:35.483Z,4.97
2019-05-23T06:03:07.635Z,4.20
2019-05-23T06:05:40.864Z,4.17
2019-05-23T06:08:13.897Z,4.00
2019-05-23T06:10:45.428Z,4.27
2019-05-23T06:13:17.104Z,3.90
2019-05-23T06:15:49.948Z,3.70
2019-05-23T06:18:21.448Z,3.70
2019-05-23T06:20:53.685Z,3.33
2019-05-23T06:23:25.070Z,2.90
2019-05-23T06:25:56.581Z,3.10
2019-05-23T06:28:29.211Z,2.60
2019-05-23T06:31:01.809Z,2.90
2019-05-23T06:33:33.690Z,2.73
2019-05-23T06:36:05.278Z,2.70
2019-05-23T06:38:37.213Z,2.20
2019-05-23T06:41:08.810Z,2.80
2019-05-23T06:43:40.289Z,2.43
2019-05-23T06:46:12.158Z,2.30
2019-05-23T06:48:45.745Z,2.17
2019-05-23T06:51:17.634Z,2.00
2019-05-23T06:53:49.007Z,2.33
2019-05-23T06:56:20.508Z,2.37
2019-05-23T06:58:52.000Z,2.40
2019-05-23T07:01:23.371Z,2.33
2019-05-23T07:03:54.995Z,2.50
2019-05-23T07:06:26.575Z,1.97
2019-05-23T07:08:57.940Z,2.10
2019-05-23T07:11:29.429Z,2.07
2019-05-23T07:14:00.880Z,1.77
2019-05-23T07:16:32.470Z,2.20
2019-05-23T07:19:04.002Z,2.27
2019-05-23T07:21:35.415Z,2.00
2019-05-23T07:24:06.923Z,1.90
2019-05-23T07:26:38.467Z,1.83
2019-05-23T07:29:10.578Z,1.90
2019-05-23T07:31:42.025Z,2.00
2019-05-23T07:34:14.139Z,1.90
2019-05-23T07:36:45.715Z,2.00
2019-05-23T07:39:18.169Z,1.47
2019-05-23T07:41:49.773Z,2.33
2019-05-23T07:44:21.165Z,2.03
2019-05-23T07:46:52.491Z,2.00
2019-05-23T07:49:23.947Z,2.10
2019-05-23T07:51:55.318Z,2.30
2019-05-23T07:54:28.499Z,2.10
2019-05-23T07:56:59.906Z,2.30
2019-05-23T07:59:31.818Z,2.40
2019-05-23T08:02:14.245Z,2.30
2019-05-23T08:04:45.713Z,2.33
2019-05-23T08:07:18.212Z,2.23
2019-05-23T08:09:49.512Z,2.20
2019-05-23T08:12:20.823Z,2.00
2019-05-23T08:14:52.091Z,2.30
2019-05-23T08:17:23.961Z,2.30
2019-05-23T08:19:55.355Z,1.93
2019-05-23T08:22:27.025Z,2.10
2019-05-23T08:24:58.317Z,2.03
2019-05-23T08:27:29.824Z,2.23
2019-05-23T08:30:03.071Z,2.30
2019-05-23T08:32:35.635Z,1.70
2019-05-23T08:35:07.530Z,1.30
2019-05-23T08:37:39.313Z,1.00
2019-05-23T08:40:10.601Z,1.10
2019-05-23T08:42:42.421Z,1.20
2019-05-23T08:45:14.676Z,1.00
2019-05-23T08:47:46.211Z,1.30
2019-05-23T08:50:17.859Z,1.17
2019-05-23T08:52:49.473Z,1.10
2019-05-23T08:55:22.812Z,1.17
2019-05-23T08:57:54.233Z,1.17
2019-05-23T09:00:27.517Z,1.00
2019-05-23T09:02:59.437Z,1.47
2019-05-23T09:05:36.008Z,1.50
2019-05-23T09:08:09.050Z,1.27
2019-05-23T09:10:40.504Z,1.30
2019-05-23T09:13:13.928Z,1.40
2019-05-23T09:15:45.183Z,1.40
2019-05-23T09:18:16.744Z,1.60
2019-05-23T09:20:47.917Z,1.40
2019-05-23T09:23:19.124Z,1.30
2019-05-23T09:25:50.811Z,1.60
2019-05-23T09:28:23.070Z,1.70
2019-05-23T09:30:54.372Z,1.60
2019-05-23T09:33:25.860Z,1.90
2019-05-23T09:35:57.134Z,2.10
2019-05-23T09:38:28.795Z,1.90
2019-05-23T09:41:00.514Z,2.00
2019-05-23T09:43:31.856Z,2.40
2019-05-23T09:46:03.295Z,2.30
2019-05-23T09:48:35.180Z,2.10
2019-05-23T09:51:06.535Z,2.30
2019-05-23T09:53:37.928Z,1.70
2019-05-23T09:56:09.259Z,2.83
2019-05-23T09:58:40.497Z,2.60
2019-05-23T10:01:12.617Z,1.93
2019-05-23T10:03:44.030Z,2.10
2019-05-23T10:06:15.549Z,1.90
2019-05-23T10:08:46.944Z,1.73
2019-05-23T10:11:18.378Z,2.00
2019-05-23T10:13:49.789Z,1.80
2019-05-23T10:16:21.505Z,1.90
2019-05-23T10:18:52.838Z,1.73
2019-05-23T10:21:24.346Z,1.70
2019-05-23T10:23:55.578Z,1.50
2019-05-23T10:26:26.966Z,1.77
2019-05-23T10:28:58.501Z,1.70
2019-05-23T10:31:30.128Z,1.27
2019-05-23T10:34:01.524Z,1.30
2019-05-23T10:36:32.977Z,1.20
2019-05-23T10:39:07.162Z,1.37
2019-05-23T10:41:38.611Z,1.50
2019-05-23T10:44:10.071Z,1.50
2019-05-23T10:46:41.446Z,1.53
2019-05-23T10:49:12.908Z,1.27
2019-05-23T10:51:44.420Z,1.80
2019-05-23T10:54:16.059Z,1.17
2019-05-23T10:56:47.560Z,1.90
2019-05-23T10:59:18.835Z,1.30
2019-05-23T11:01:50.208Z,1.30
2019-05-23T11:04:21.679Z,1.07
2019-05-23T11:06:53.180Z,1.13
2019-05-23T11:09:37.286Z,1.40
2019-05-23T11:11:58.458Z,1.50
2019-05-23T11:14:29.931Z,1.60
2019-05-23T11:17:01.879Z,1.70
2019-05-23T11:19:33.336Z,2.07
2019-05-23T11:22:06.156Z,2.10
2019-05-23T11:24:37.740Z,2.20
2019-05-23T11:27:09.177Z,1.97
2019-05-23T11:29:40.551Z,1.83
2019-05-23T11:32:12.519Z,1.80
2019-05-23T11:34:44.303Z,1.70
2019-05-23T11:37:15.828Z,1.43
2019-05-23T11:39:50.170Z,1.50
2019-05-23T11:42:20.399Z,1.20
2019-05-23T11:44:51.833Z,1.30
2019-05-23T11:47:24.439Z,1.40
2019-05-23T11:49:55.709Z,1.60
2019-05-23T11:52:28.749Z,1.30
2019-05-23T11:55:00.817Z,1.10
2019-05-23T11:57:32.174Z,1.47
2019-05-23T12:00:06.556Z,1.00
2019-05-23T12:02:45.098Z,1.07
2019-05-23T12:05:22.356Z,1.10
2019-05-23T12:07:53.824Z,1.10
2019-05-23T12:10:25.356Z,1.20
2019-05-23T12:12:56.677Z,1.13
2019-05-23T12:15:30.017Z,1.10
2019-05-23T12:18:01.311Z,1.30
2019-05-23T12:20:32.618Z,1.67
2019-05-23T12:23:10.467Z,1.40
2019-05-23T12:25:37.481Z,1.70
2019-05-23T12:28:10.562Z,2.50
2019-05-23T12:30:42.017Z,2.73
2019-05-23T12:33:13.594Z,4.67
2019-05-23T12:35:44.908Z,4.43
2019-05-23T12:38:16.290Z,6.33
2019-05-23T12:40:47.920Z,6.43
2019-05-23T12:43:19.400Z,7.93
2019-05-23T12:45:50.926Z,9.00
2019-05-23T12:48:30.029Z,9.93
2019-05-23T12:51:09.310Z,10.50
2019-05-23T12:53:40.705Z,11.33
2019-05-23T12:56:12.525Z,11.20
2019-05-23T12:58:44.512Z,11.00
2019-05-23T13:01:16.308Z,11.00
2019-05-23T13:03:47.963Z,10.20
2019-05-23T13:06:19.471Z,9.57
2019-05-23T13:08:50.928Z,10.17
2019-05-23T13:11:23.015Z,8.33
2019-05-23T13:13:54.845Z,7.43
2019-05-23T13:16:26.402Z,7.83
2019-05-23T13:18:57.672Z,9.23
2019-05-23T13:21:28.843Z,5.03
2019-05-23T13:24:00.296Z,4.13
2019-05-23T13:26:31.867Z,5.30
2019-05-23T13:29:03.262Z,5.30
2019-05-23T13:31:34.881Z,6.60
2019-05-23T13:34:06.461Z,3.00
2019-05-23T13:36:37.762Z,2.43
2019-05-23T13:39:09.997Z,2.73
2019-05-23T13:41:42.264Z,2.53
2019-05-23T13:44:32.094Z,2.63
2019-05-23T13:46:46.592Z,6.17
2019-05-23T13:49:18.101Z,7.47
2019-05-23T13:51:49.725Z,4.63
2019-05-23T13:54:21.771Z,3.87
2019-05-23T13:56:53.285Z,3.63
2019-05-23T13:59:24.487Z,4.20
2019-05-23T14:01:57.046Z,4.30
2019-05-23T14:04:28.503Z,4.80
2019-05-23T14:06:59.883Z,5.30
2019-05-23T14:09:32.439Z,5.00
2019-05-23T14:12:20.820Z,6.10
2019-05-23T14:14:38.156Z,6.63
2019-05-23T14:17:20.150Z,7.50
2019-05-23T14:19:51.816Z,7.40
2019-05-23T14:22:23.127Z,7.80
2019-05-23T14:24:54.431Z,7.60
2019-05-23T14:27:39.446Z,8.83
2019-05-23T14:30:14.808Z,8.17
2019-05-23T14:32:50.880Z,8.50
2019-05-23T14:35:27.245Z,8.63
2019-05-23T14:38:03.332Z,9.43
2019-05-23T14:40:34.956Z,9.77
2019-05-23T14:43:11.110Z,10.90
2019-05-23T14:45:44.203Z,11.03
2019-05-23T14:48:36.478Z,10.87
2019-05-23T14:51:09.970Z,11.47
2019-05-23T14:53:59.679Z,10.87
2019-05-23T14:56:32.432Z,11.87
2019-05-23T14:59:03.944Z,11.80
2019-05-23T15:01:35.734Z,12.13
2019-05-23T15:04:07.402Z,12.07
2019-05-23T15:06:38.606Z,11.40
2019-05-23T15:09:10.093Z,10.90
2019-05-23T15:11:41.573Z,11.40
2019-05-23T15:14:12.868Z,12.07
2019-05-23T15:16:44.820Z,10.73
2019-05-23T15:19:36.423Z,11.70
2019-05-23T15:21:49.401Z,11.30
2019-05-23T15:24:21.103Z,11.00
2019-05-23T15:26:52.388Z,11.90
2019-05-23T15:29:28.635Z,11.83
2019-05-23T15:32:02.287Z,11.30
2019-05-23T15:34:30.085Z,12.30
2019-05-23T15:37:01.563Z,12.00
2019-05-23T15:39:33.190Z,12.07
2019-05-23T15:42:04.805Z,12.10
2019-05-23T15:44:36.488Z,12.20
2019-05-23T15:47:07.789Z,12.17
2019-05-23T15:49:41.109Z,11.80
2019-05-23T15:52:14.213Z,12.73
2019-05-23T15:54:49.952Z,12.33
2019-05-23T15:57:38.295Z,12.67
2019-05-23T16:00:12.293Z,12.40
2019-05-23T16:02:45.487Z,12.90
2019-05-23T16:05:18.670Z,13.07
2019-05-23T16:07:49.968Z,13.13
2019-05-23T16:10:21.668Z,12.73
2019-05-23T16:12:53.285Z,11.70
2019-05-23T16:15:24.625Z,13.00
2019-05-23T16:17:56.641Z,12.70
2019-05-23T16:20:28.281Z,13.33
2019-05-23T16:22:59.632Z,12.03
2019-05-23T16:25:31.390Z,13.07
2019-05-23T16:28:02.860Z,12.20
2019-05-23T16:30:34.340Z,11.53
2019-05-23T16:33:05.633Z,12.90
2019-05-23T16:35:38.358Z,12.27
2019-05-23T16:38:09.694Z,14.20
2019-05-23T16:40:41.377Z,13.10
2019-05-23T16:43:13.951Z,12.87
2019-05-23T16:45:45.335Z,12.27
2019-05-23T16:48:16.795Z,12.53
2019-05-23T16:50:48.414Z,12.47
2019-05-23T16:53:20.199Z,12.10
2019-05-23T16:56:05.768Z,12.87
2019-05-23T16:58:38.905Z,11.87
2019-05-23T17:01:24.053Z,11.97
2019-05-23T17:03:57.810Z,11.97
2019-05-23T17:06:33.523Z,12.17
2019-05-23T17:09:25.349Z,11.60
2019-05-23T17:11:58.933Z,12.00
2019-05-23T17:14:32.072Z,14.73
2019-05-23T17:17:43.534Z,13.00
2019-05-23T17:20:00.230Z,12.70
2019-05-23T17:22:42.250Z,12.87
2019-05-23T17:25:15.424Z,13.70
2019-05-23T17:27:54.420Z,14.77
2019-05-23T17:30:27.610Z,15.33
2019-05-23T17:32:59.085Z,14.23
2019-05-23T17:35:30.437Z,15.50
2019-05-23T17:38:01.851Z,14.73
2019-05-23T17:40:33.135Z,16.67
2019-05-23T17:43:04.401Z,15.60
2019-05-23T17:45:36.232Z,16.03
2019-05-23T17:48:07.810Z,15.63
2019-05-23T17:50:39.584Z,17.50
2019-05-23T17:53:10.859Z,19.53
2019-05-23T17:55:42.868Z,15.37
2019-05-23T17:58:16.059Z,16.70
2019-05-23T18:00:48.522Z,15.37
2019-05-23T18:03:19.896Z,15.40
2019-05-23T18:05:51.572Z,15.70
2019-05-23T18:08:22.920Z,15.23
2019-05-23T18:10:54.468Z,15.40
2019-05-23T18:13:26.499Z,15.53
2019-05-23T18:15:58.092Z,16.93
2019-05-23T18:18:29.972Z,15.50
2019-05-23T18:21:03.248Z,22.73
2019-05-23T18:23:34.712Z,20.17
2019-05-23T18:26:06.520Z,17.07
2019-05-23T18:28:38.158Z,17.43
2019-05-23T18:31:21.471Z,15.80
2019-05-23T18:33:53.928Z,16.93
2019-05-23T18:36:25.836Z,17.00
2019-05-23T18:38:57.111Z,16.60
2019-05-23T18:41:29.690Z,16.77
2019-05-23T18:44:01.876Z,15.27
2019-05-23T18:46:37.784Z,16.47
2019-05-23T18:49:12.163Z,15.33
2019-05-23T18:51:43.346Z,14.90
2019-05-23T18:54:14.838Z,15.53
2019-05-23T18:56:46.306Z,16.93
2019-05-23T18:59:18.320Z,16.03
2019-05-23T19:01:50.003Z,16.50
2019-05-23T19:04:21.532Z,16.33
2019-05-23T19:06:53.220Z,15.67
2019-05-23T19:09:25.750Z,15.47
2019-05-23T19:11:57.319Z,14.87
2019-05-23T19:14:28.663Z,15.60
2019-05-23T19:17:00.497Z,15.70
2019-05-23T19:19:32.606Z,15.20
2019-05-23T19:22:05.157Z,15.47
2019-05-23T19:24:36.772Z,14.57
2019-05-23T19:27:09.246Z,15.27
2019-05-23T19:29:40.613Z,14.67
2019-05-23T19:32:14.130Z,14.63
2019-05-23T19:34:45.993Z,14.70
2019-05-23T19:37:17.649Z,14.50
2019-05-23T19:39:49.070Z,14.40
2019-05-23T19:42:21.557Z,14.37
2019-05-23T19:44:52.873Z,13.23
2019-05-23T19:47:24.284Z,14.97
2019-05-23T19:49:55.720Z,16.10
2019-05-23T19:52:28.040Z,13.87
2019-05-23T19:54:59.385Z,12.67
2019-05-23T19:57:31.630Z,12.43
2019-05-23T20:00:08.957Z,12.50
2019-05-23T20:02:57.019Z,13.13
2019-05-23T20:05:39.682Z,14.07
2019-05-23T20:08:11.011Z,13.63
2019-05-23T20:10:43.124Z,11.73
2019-05-23T20:13:18.099Z,12.50
2019-05-23T20:15:48.042Z,11.17
2019-05-23T20:18:19.564Z,12.30
2019-05-23T20:20:51.437Z,11.30
2019-05-23T20:23:23.059Z,10.90
2019-05-23T20:25:54.630Z,10.37
2019-05-23T20:28:27.003Z,10.57
2019-05-23T20:30:59.298Z,10.37
2019-05-23T20:33:30.785Z,10.13
2019-05-23T20:36:03.925Z,9.87
2019-05-23T20:38:35.284Z,9.57
2019-05-23T20:41:06.605Z,10.13
2019-05-23T20:43:38.001Z,9.80
2019-05-23T20:46:09.386Z,9.43
2019-05-23T20:48:40.721Z,9.77
2019-05-23T20:51:11.991Z,8.53
2019-05-23T20:53:44.242Z,9.17
2019-05-23T20:56:15.548Z,8.77
2019-05-23T20:58:47.183Z,8.57
2019-05-23T21:01:20.561Z,8.73
2019-05-23T21:03:52.655Z,9.70
2019-05-23T21:06:23.937Z,9.43
2019-05-23T21:08:55.242Z,10.47
2019-05-23T21:11:26.636Z,8.80
2019-05-23T21:13:57.911Z,10.83
2019-05-23T21:16:29.225Z,10.47
2019-05-23T21:19:00.535Z,8.30
2019-05-23T21:21:31.734Z,8.33
2019-05-23T21:24:03.115Z,8.57
2019-05-23T21:26:34.755Z,8.07
2019-05-23T21:29:06.074Z,8.23
2019-05-23T21:31:37.500Z,9.20
2019-05-23T21:34:08.811Z,8.43
2019-05-23T21:36:40.647Z,9.10
2019-05-23T21:39:13.108Z,8.97
2019-05-23T21:41:44.409Z,9.40
2019-05-23T21:44:15.688Z,9.47
2019-05-23T21:46:46.981Z,9.03
2019-05-23T21:49:18.327Z,9.37
2019-05-23T21:51:51.787Z,9.33
2019-05-23T21:54:22.954Z,8.90
2019-05-23T21:56:54.378Z,9.47
2019-05-23T21:59:25.561Z,9.10
2019-05-23T22:01:59.357Z,9.23
2019-05-23T22:04:32.448Z,9.50
2019-05-23T22:07:03.806Z,9.33
2019-05-23T22:09:35.074Z,9.83
2019-05-23T22:12:08.335Z,9.40
2019-05-23T22:14:40.136Z,10.03
2019-05-23T22:17:11.314Z,10.13
2019-05-23T22:19:43.029Z,8.60
2019-05-23T22:22:14.447Z,8.23
2019-05-23T22:24:45.812Z,8.47
2019-05-23T22:27:17.058Z,8.70
2019-05-23T22:29:48.224Z,8.80
2019-05-23T22:32:21.329Z,8.90
2019-05-23T22:34:57.263Z,8.93
2019-05-23T22:37:28.712Z,8.67
2019-05-23T22:40:00.150Z,7.93
2019-05-23T22:42:33.236Z,7.97
2019-05-23T22:45:08.962Z,8.03
2019-05-23T22:47:40.350Z,7.90
2019-05-23T22:50:13.972Z,7.47
2019-05-23T22:52:45.570Z,8.00
2019-05-23T22:55:16.772Z,7.80
2019-05-23T22:57:48.078Z,8.00
2019-05-23T23:00:23.934Z,8.03
2019-05-23T23:02:55.129Z,8.27
2019-05-23T23:05:26.710Z,8.27
2019-05-23T23:07:58.599Z,8.17
2019-05-23T23:10:29.866Z,7.97
2019-05-23T23:13:01.145Z,7.63
2019-05-23T23:15:33.179Z,7.73
2019-05-23T23:18:04.477Z,7.30
2019-05-23T23:20:36.024Z,7.77
2019-05-23T23:23:07.297Z,7.13
2019-05-23T23:25:38.569Z,6.70
2019-05-23T23:28:11.009Z,6.57
2019-05-23T23:30:44.199Z,7.20
2019-05-23T23:33:15.464Z,6.37
2019-05-23T23:35:46.764Z,6.37
2019-05-23T23:38:18.034Z,6.13
2019-05-23T23:40:49.803Z,6.17
2019-05-23T23:43:21.101Z,6.90
2019-05-23T23:46:10.944Z,6.23
2019-05-23T23:49:00.526Z,6.53
2019-05-23T23:51:50.544Z,7.03
2019-05-23T23:54:40.544Z,6.85
2019-05-23T23:57:30.568Z,6.40
